FHAW

Details ICAO FHAW
Name Ascension Wideawake Field
Region Saint Helena, Ascension and Tristan da Cunha
Timezone Atlantic/St_Helena (UTC+0.0)
Plans Departing 19
Arriving 34
Stats Elevation 278 ft / 85 m (AMSL)
Location -7.969590° -14.393699°
Runways 1
Magnetic Variation 15.485° W
Sunrise 2017-01-24 06:56:08 UTC / 2017-01-24 06:56:08 Local
Sunset 2017-01-24 19:25:33 UTC / 2017-01-24 19:25:33 Local
Advertisement - Login to hide

Runways

ID Width Length Bearing (true) Bearing (mag) Surface Threshold Offset Overrun Length
13 148 ft / 45 m 10,008 ft / 3,050 m 116.79° 132.28° Asphalt 0 ft / 0 m 262 ft / 80 m
31 148 ft / 45 m 10,008 ft / 3,050 m 296.79° 312.28° Asphalt 0 ft / 0 m 495 ft / 151 m

Map

Weather

Temperature
Clouds and Precipitation
Forecast for 2017-01-24 06:00 UTC. Updated 2 hours ago
Winds

METAR

FHAW 240550Z 14010KT 9999 FEW016 BKN040 25/21 Q1014 BLU TEMPO SCT016 WHT

TAF

TAF FHAW 240130Z 2403/2421 15015KT 9999 FEW018 PROB40 TEMPO 2403/2421 5000 -SHRA SCT014 BKN025

Frequencies

Tower 126.20 MHz Wideawake Tower
Warning: Do not use this data for real-world aviation or navigation. No guarantee of current accuracy is given.